sim
Sign-in with your pilot id or email,
or register
Callsign
Passwort

Schedule Details

Flight Number: DLH2222 (2)
Departure: Munich Airport (EDDM) at 18:40
Arrival: Toulouse Blagnac Airport (LFBO) at 20:30
Route: Lufthansa Passenger Schedule. Enter filed route here before submitting Pirep.

Weather Information
Getting current METAR information for EDDM 192120Z 32002KT CAVOK 11/10 Q1018 NOSIG
Getting current METAR information for LFBO 192130Z AUTO 31007KT 9999 ///TCU 19/17 Q1014 TEMPO 4000 SHRA SCT030TCU FEW050CB

Schedule Frequency

Route Map